createdAt,value
2018-07-21T00:00:00.436Z,61.39
2018-07-21T00:01:53.274Z,61.77
2018-07-21T00:02:53.156Z,61.39
2018-07-21T00:04:46.028Z,61.39
2018-07-21T00:05:45.923Z,61.49
2018-07-21T00:07:38.771Z,61.77
2018-07-21T00:08:38.669Z,61.77
2018-07-21T00:10:31.513Z,61.87
2018-07-21T00:11:31.405Z,61.87
2018-07-21T00:13:24.258Z,61.87
2018-07-21T00:14:24.175Z,61.77
2018-07-21T00:16:16.920Z,62.03
2018-07-21T00:17:16.807Z,62.51
2018-07-21T00:19:09.652Z,62.32
2018-07-21T00:20:09.560Z,62.99
2018-07-21T00:22:02.413Z,62.71
2018-07-21T00:23:02.428Z,62.13
2018-07-21T00:24:55.186Z,62.99
2018-07-21T00:25:55.059Z,62.99
2018-07-21T00:27:47.913Z,62.71
2018-07-21T00:28:47.826Z,63.09
2018-07-21T00:30:40.688Z,62.71
2018-07-21T00:31:40.565Z,63.67
2018-07-21T00:33:33.455Z,63.57
2018-07-21T00:34:33.207Z,62.99
2018-07-21T00:36:26.084Z,63.67
2018-07-21T00:37:25.962Z,63.09
2018-07-21T00:39:18.794Z,63.48
2018-07-21T00:40:18.730Z,63.57
2018-07-21T00:42:11.570Z,63.83
2018-07-21T00:43:11.446Z,63.92
2018-07-21T00:45:04.281Z,64.05
2018-07-21T00:46:04.196Z,63.92
2018-07-21T00:47:57.095Z,63.92
2018-07-21T00:48:56.982Z,64.31
2018-07-21T00:50:49.779Z,64.40
2018-07-21T00:51:49.730Z,64.40
2018-07-21T00:53:42.542Z,64.60
2018-07-21T00:54:42.456Z,64.89
2018-07-21T00:56:35.315Z,64.50
2018-07-21T00:57:35.216Z,65.08
2018-07-21T00:59:28.873Z,65.37
2018-07-21T01:00:28.934Z,65.27
2018-07-21T01:02:21.605Z,65.37
2018-07-21T01:03:21.515Z,65.56
2018-07-21T01:05:14.389Z,65.46
2018-07-21T01:06:14.267Z,65.08
2018-07-21T01:08:07.137Z,65.84
2018-07-21T01:09:07.009Z,64.89
2018-07-21T01:10:59.889Z,65.46
2018-07-21T01:11:59.764Z,65.75
2018-07-21T01:13:52.619Z,66.71
2018-07-21T01:14:52.508Z,66.97
2018-07-21T01:16:45.377Z,66.30
2018-07-21T01:17:45.262Z,67.16
2018-07-21T01:19:38.123Z,67.45
2018-07-21T01:20:38.010Z,66.87
2018-07-21T01:22:30.959Z,67.45
2018-07-21T01:23:30.766Z,67.25
2018-07-21T01:25:23.623Z,67.45
2018-07-21T01:26:23.546Z,67.54
2018-07-21T01:28:16.364Z,67.45
2018-07-21T01:29:16.261Z,67.54
2018-07-21T01:31:09.134Z,68.12
2018-07-21T01:32:09.033Z,67.45
2018-07-21T01:34:01.874Z,66.87
2018-07-21T01:35:01.805Z,66.20
2018-07-21T01:36:54.621Z,65.84
2018-07-21T01:37:54.501Z,65.72
2018-07-21T01:39:47.508Z,65.17
2018-07-21T01:40:47.259Z,65.94
2018-07-21T01:42:40.096Z,65.27
2018-07-21T01:43:40.035Z,65.46
2018-07-21T01:45:32.906Z,64.89
2018-07-21T01:46:32.780Z,65.08
2018-07-21T01:48:25.635Z,64.50
2018-07-21T01:49:25.531Z,63.92
2018-07-21T01:51:18.516Z,63.45
2018-07-21T01:52:18.252Z,64.50
2018-07-21T01:54:11.092Z,64.31
2018-07-21T01:55:11.000Z,64.69
2018-07-21T01:57:03.856Z,64.22
2018-07-21T01:58:03.777Z,64.50
2018-07-21T01:59:57.016Z,63.92
2018-07-21T02:00:56.917Z,64.40
2018-07-21T02:02:49.787Z,64.05
2018-07-21T02:03:49.661Z,64.60
2018-07-21T02:05:42.534Z,64.12
2018-07-21T02:06:42.447Z,64.40
2018-07-21T02:08:35.284Z,64.89
2018-07-21T02:09:35.172Z,65.37
2018-07-21T02:11:28.075Z,65.37
2018-07-21T02:12:27.911Z,66.00
2018-07-21T02:14:20.765Z,66.39
2018-07-21T02:15:20.667Z,66.49
2018-07-21T02:17:13.523Z,66.68
2018-07-21T02:18:13.327Z,66.68
2018-07-21T02:20:06.184Z,67.16
2018-07-21T02:21:06.074Z,67.25
2018-07-21T02:22:58.941Z,67.25
2018-07-21T02:23:58.843Z,66.68
2018-07-21T02:25:51.675Z,67.45
2018-07-21T02:26:51.564Z,67.13
2018-07-21T02:28:44.415Z,67.99
2018-07-21T02:29:44.301Z,68.08
2018-07-21T02:31:37.161Z,67.99
2018-07-21T02:32:37.051Z,67.90
2018-07-21T02:34:29.962Z,68.08
2018-07-21T02:35:30.042Z,67.80
2018-07-21T02:37:22.662Z,68.08
2018-07-21T02:38:22.551Z,67.51
2018-07-21T02:40:15.414Z,67.61
2018-07-21T02:41:15.332Z,67.51
2018-07-21T02:43:08.185Z,67.61
2018-07-21T02:44:08.052Z,68.08
2018-07-21T02:46:00.889Z,67.90
2018-07-21T02:47:00.824Z,67.90
2018-07-21T02:48:53.560Z,67.80
2018-07-21T02:49:53.475Z,68.47
2018-07-21T02:51:46.292Z,68.08
2018-07-21T02:52:46.210Z,67.90
2018-07-21T02:54:39.075Z,68.47
2018-07-21T02:55:38.947Z,69.14
2018-07-21T02:57:31.808Z,69.34
2018-07-21T02:58:31.716Z,69.97
2018-07-21T03:00:24.557Z,69.59
2018-07-21T03:01:24.444Z,69.87
2018-07-21T03:03:17.302Z,69.40
2018-07-21T03:04:17.206Z,69.87
2018-07-21T03:06:10.064Z,70.45
2018-07-21T03:07:09.946Z,69.78
2018-07-21T03:09:02.803Z,69.62
2018-07-21T03:10:02.711Z,69.43
2018-07-21T03:11:55.465Z,69.24
2018-07-21T03:12:55.356Z,69.24
2018-07-21T03:14:48.183Z,69.24
2018-07-21T03:15:48.101Z,69.72
2018-07-21T03:17:40.962Z,69.53
2018-07-21T03:18:40.856Z,70.36
2018-07-21T03:20:34.712Z,70.45
2018-07-21T03:21:34.012Z,70.45
2018-07-21T03:23:26.845Z,70.36
2018-07-21T03:24:26.772Z,70.64
2018-07-21T03:26:19.638Z,70.74
2018-07-21T03:27:19.500Z,71.03
2018-07-21T03:29:12.247Z,71.03
2018-07-21T03:30:12.147Z,71.70
2018-07-21T03:32:05.008Z,71.22
2018-07-21T03:33:04.899Z,71.70
2018-07-21T03:34:57.661Z,71.70
2018-07-21T03:35:57.551Z,72.28
2018-07-21T03:37:50.436Z,72.56
2018-07-21T03:38:50.298Z,73.04
2018-07-21T03:40:43.037Z,73.39
2018-07-21T03:41:42.960Z,73.30
2018-07-21T03:43:36.244Z,73.68
2018-07-21T03:44:36.103Z,74.06
2018-07-21T03:46:28.942Z,74.06
2018-07-21T03:47:28.852Z,74.06
2018-07-21T03:49:21.727Z,74.73
2018-07-21T03:50:21.625Z,75.12
2018-07-21T03:52:14.451Z,74.93
2018-07-21T03:53:14.344Z,75.02
2018-07-21T03:55:07.254Z,75.12
2018-07-21T03:56:07.098Z,75.50
2018-07-21T03:57:59.949Z,75.60
2018-07-21T03:58:59.848Z,75.40
2018-07-21T04:00:52.605Z,76.46
2018-07-21T04:01:52.520Z,76.46
2018-07-21T04:03:45.270Z,76.84
2018-07-21T04:04:45.142Z,77.04
2018-07-21T04:06:38.017Z,77.61
2018-07-21T04:07:37.895Z,77.90
2018-07-21T04:09:30.749Z,78.44
2018-07-21T04:10:30.641Z,78.34
2018-07-21T04:12:23.399Z,78.92
2018-07-21T04:13:23.294Z,79.11
2018-07-21T04:15:16.196Z,79.01
2018-07-21T04:16:16.038Z,79.68
2018-07-21T04:18:09.028Z,79.49
2018-07-21T04:19:08.847Z,79.68
2018-07-21T04:21:01.644Z,80.55
2018-07-21T04:22:01.558Z,79.82
2018-07-21T04:23:54.338Z,80.20
2018-07-21T04:24:54.189Z,80.30
2018-07-21T04:26:47.045Z,80.30
2018-07-21T04:27:46.933Z,80.40
2018-07-21T04:29:42.112Z,80.97
2018-07-21T04:30:41.685Z,81.35
2018-07-21T04:32:35.241Z,80.58
2018-07-21T04:33:35.111Z,80.40
2018-07-21T04:35:27.955Z,81.45
2018-07-21T04:36:27.861Z,81.35
2018-07-21T04:38:20.700Z,81.45
2018-07-21T04:39:20.591Z,81.45
2018-07-21T04:41:13.344Z,81.45
2018-07-21T04:42:13.256Z,82.12
2018-07-21T04:44:06.114Z,82.60
2018-07-21T04:45:06.093Z,83.08
2018-07-21T04:46:58.742Z,82.60
2018-07-21T04:47:58.641Z,82.51
2018-07-21T04:49:51.502Z,81.74
2018-07-21T04:50:51.384Z,81.84
2018-07-21T04:52:44.167Z,83.27
2018-07-21T04:53:44.050Z,82.70
2018-07-21T04:55:36.905Z,82.41
2018-07-21T04:56:36.798Z,82.93
2018-07-21T04:58:29.664Z,80.91
2018-07-21T04:59:29.429Z,81.59
2018-07-21T05:01:22.296Z,81.78
2018-07-21T05:02:22.202Z,81.20
2018-07-21T05:04:15.035Z,80.15
2018-07-21T05:05:14.926Z,80.63
2018-07-21T05:07:07.687Z,80.91
2018-07-21T05:08:07.589Z,81.01
2018-07-21T05:10:00.841Z,80.86
2018-07-21T05:11:00.738Z,80.76
2018-07-21T05:12:53.598Z,80.66
2018-07-21T05:13:53.486Z,80.57
2018-07-21T05:15:46.232Z,79.52
2018-07-21T05:16:46.136Z,80.09
2018-07-21T05:18:39.021Z,79.13
2018-07-21T05:19:38.914Z,79.32
2018-07-21T05:21:31.648Z,79.03
2018-07-21T05:22:31.548Z,79.22
2018-07-21T05:24:24.494Z,77.98
2018-07-21T05:25:24.294Z,78.17
2018-07-21T05:27:17.119Z,77.53
2018-07-21T05:28:17.256Z,77.25
2018-07-21T05:30:09.903Z,77.83
2018-07-21T05:31:09.807Z,77.06
2018-07-21T05:33:02.642Z,77.34
2018-07-21T05:34:02.533Z,77.06
2018-07-21T05:35:55.391Z,77.44
2018-07-21T05:36:55.274Z,76.96
2018-07-21T05:38:48.667Z,75.65
2018-07-21T05:39:48.450Z,75.94
2018-07-21T05:41:41.317Z,75.07
2018-07-21T05:42:41.190Z,74.69
2018-07-21T05:44:33.943Z,73.54
2018-07-21T05:45:33.843Z,73.44
2018-07-21T05:47:26.675Z,73.19
2018-07-21T05:48:26.594Z,73.28
2018-07-21T05:50:19.433Z,72.42
2018-07-21T05:51:19.334Z,72.52
2018-07-21T05:53:12.253Z,71.08
2018-07-21T05:54:12.083Z,70.53
2018-07-21T05:56:04.924Z,70.05
2018-07-21T05:57:04.850Z,68.99
2018-07-21T05:58:58.111Z,68.32
2018-07-21T05:59:58.004Z,68.22
2018-07-21T06:01:50.835Z,67.77
2018-07-21T06:02:50.829Z,67.87
2018-07-21T06:04:43.599Z,67.19
2018-07-21T06:05:43.489Z,65.37
2018-07-21T06:07:36.348Z,65.30
2018-07-21T06:08:36.281Z,64.15
2018-07-21T06:10:29.093Z,63.28
2018-07-21T06:11:28.991Z,63.09
2018-07-21T06:13:21.743Z,62.73
2018-07-21T06:14:21.713Z,61.77
2018-07-21T06:16:14.488Z,61.58
2018-07-21T06:17:14.382Z,60.90
2018-07-21T06:19:07.326Z,61.22
2018-07-21T06:20:07.142Z,61.13
2018-07-21T06:22:00.005Z,60.35
2018-07-21T06:22:59.914Z,59.71
2018-07-21T06:24:52.754Z,58.26
2018-07-21T06:25:52.639Z,58.45
2018-07-21T06:27:45.568Z,58.45
2018-07-21T06:28:45.462Z,58.45
2018-07-21T06:30:38.244Z,58.45
2018-07-21T06:31:38.138Z,58.65
2018-07-21T06:33:30.992Z,58.36
2018-07-21T06:34:30.895Z,58.45
2018-07-21T06:36:23.744Z,58.65
2018-07-21T06:37:23.634Z,58.65
2018-07-21T06:39:16.507Z,58.87
2018-07-21T06:40:16.399Z,58.48
2018-07-21T06:42:09.236Z,57.90
2018-07-21T06:43:09.211Z,58.19
2018-07-21T06:45:02.009Z,57.04
2018-07-21T06:46:01.907Z,57.52
2018-07-21T06:47:54.731Z,57.16
2018-07-21T06:48:54.663Z,56.58
2018-07-21T06:50:47.490Z,56.48
2018-07-21T06:51:47.410Z,56.20
2018-07-21T06:53:40.227Z,56.90
2018-07-21T06:54:40.150Z,56.41
2018-07-21T06:56:33.008Z,55.74
2018-07-21T06:57:32.952Z,55.19
2018-07-21T06:59:25.746Z,54.71
2018-07-21T07:00:25.646Z,55.19
2018-07-21T07:02:18.513Z,55.29
2018-07-21T07:03:18.391Z,54.61
2018-07-21T07:05:11.223Z,54.51
2018-07-21T07:06:11.156Z,54.32
2018-07-21T07:08:03.993Z,53.77
2018-07-21T07:09:03.907Z,54.05
2018-07-21T07:10:56.736Z,53.57
2018-07-21T07:11:56.668Z,53.69
2018-07-21T07:13:49.520Z,52.82
2018-07-21T07:14:49.388Z,53.11
2018-07-21T07:16:42.647Z,51.98
2018-07-21T07:17:42.559Z,51.86
2018-07-21T07:19:35.404Z,51.40
2018-07-21T07:20:35.417Z,51.78
2018-07-21T07:22:28.207Z,51.47
2018-07-21T07:23:28.049Z,51.86
2018-07-21T07:25:20.934Z,51.47
2018-07-21T07:26:20.806Z,51.37
2018-07-21T07:28:14.345Z,51.86
2018-07-21T07:29:13.536Z,51.76
2018-07-21T07:31:06.403Z,51.95
2018-07-21T07:32:06.317Z,51.28
2018-07-21T07:33:59.146Z,51.68
2018-07-21T07:34:59.062Z,50.72
2018-07-21T07:36:55.172Z,51.20
2018-07-21T07:37:55.042Z,50.52
2018-07-21T07:39:49.113Z,50.65
2018-07-21T07:40:48.596Z,50.26
2018-07-21T07:42:41.383Z,49.87
2018-07-21T07:43:41.291Z,50.16
2018-07-21T07:45:34.178Z,50.07
2018-07-21T07:46:34.031Z,49.39
2018-07-21T07:48:26.908Z,49.39
2018-07-21T07:49:26.793Z,49.39
2018-07-21T07:51:19.638Z,49.41
2018-07-21T07:52:19.553Z,48.74
2018-07-21T07:54:12.376Z,48.25
2018-07-21T07:55:12.297Z,48.35
2018-07-21T07:57:05.164Z,48.54
2018-07-21T07:58:05.034Z,48.06
2018-07-21T07:59:57.868Z,48.54
2018-07-21T08:00:57.786Z,48.06
2018-07-21T08:02:50.641Z,49.80
2018-07-21T08:03:50.536Z,49.51
2018-07-21T08:05:43.381Z,47.30
2018-07-21T08:06:43.318Z,47.40
2018-07-21T08:08:36.129Z,47.98
2018-07-21T08:09:36.088Z,48.37
2018-07-21T08:11:28.927Z,46.72
2018-07-21T08:12:28.788Z,47.40
2018-07-21T08:14:21.670Z,46.65
2018-07-21T08:15:21.539Z,46.55
2018-07-21T08:17:14.369Z,46.75
2018-07-21T08:18:14.343Z,46.84
2018-07-21T08:20:07.135Z,46.04
2018-07-21T08:21:07.032Z,46.75
2018-07-21T08:22:59.919Z,46.84
2018-07-21T08:23:59.771Z,46.75
2018-07-21T08:25:52.639Z,46.38
2018-07-21T08:26:52.541Z,46.77
2018-07-21T08:28:45.415Z,45.02
2018-07-21T08:29:45.374Z,44.73
2018-07-21T08:31:38.221Z,45.61
2018-07-21T08:32:38.158Z,45.70
2018-07-21T08:34:30.999Z,46.31
2018-07-21T08:35:30.891Z,45.14
2018-07-21T08:37:23.719Z,44.97
2018-07-21T08:38:23.635Z,44.97
2018-07-21T08:40:16.481Z,44.09
2018-07-21T08:41:16.393Z,44.38
2018-07-21T08:43:09.238Z,44.48
2018-07-21T08:44:09.251Z,44.38
2018-07-21T08:46:02.149Z,44.38
2018-07-21T08:47:01.929Z,43.90
2018-07-21T08:48:54.726Z,44.29
2018-07-21T08:49:54.698Z,44.38
2018-07-21T08:51:47.489Z,44.07
2018-07-21T08:52:47.382Z,44.17
2018-07-21T08:54:40.235Z,44.56
2018-07-21T08:55:40.164Z,44.07
2018-07-21T08:57:32.982Z,43.78
2018-07-21T08:58:32.921Z,43.90
2018-07-21T09:00:25.725Z,43.12
2018-07-21T09:01:25.641Z,43.41
2018-07-21T09:03:18.480Z,42.85
2018-07-21T09:04:18.385Z,42.95
2018-07-21T09:06:11.254Z,42.46
2018-07-21T09:07:11.128Z,42.36
2018-07-21T09:09:03.977Z,41.98
2018-07-21T09:10:03.884Z,42.36
2018-07-21T09:11:56.722Z,42.08
2018-07-21T09:12:56.632Z,41.88
2018-07-21T09:14:49.461Z,42.36
2018-07-21T09:15:49.383Z,42.36
2018-07-21T09:17:42.247Z,42.08
2018-07-21T09:18:42.137Z,41.88
2018-07-21T09:20:34.978Z,42.00
2018-07-21T09:21:34.957Z,41.98
2018-07-21T09:23:27.741Z,42.00
2018-07-21T09:24:27.667Z,41.32
2018-07-21T09:26:20.474Z,41.42
2018-07-21T09:27:20.381Z,41.22
2018-07-21T09:29:13.239Z,41.88
2018-07-21T09:30:13.129Z,42.08
2018-07-21T09:32:06.008Z,42.18
2018-07-21T09:33:05.882Z,42.56
2018-07-21T09:34:58.711Z,42.58
2018-07-21T09:35:58.634Z,42.39
2018-07-21T09:37:51.494Z,42.02
2018-07-21T09:38:51.397Z,41.53
2018-07-21T09:40:44.322Z,41.34
2018-07-21T09:41:44.223Z,41.05
2018-07-21T09:43:37.064Z,41.16
2018-07-21T09:44:36.977Z,40.09
2018-07-21T09:46:29.819Z,41.06
2018-07-21T09:47:29.738Z,40.39
2018-07-21T09:49:22.661Z,40.00
2018-07-21T09:50:22.583Z,40.88
2018-07-21T09:52:15.534Z,40.11
2018-07-21T09:53:15.434Z,39.34
2018-07-21T09:55:08.259Z,39.14
2018-07-21T09:56:08.193Z,39.14
2018-07-21T09:58:01.158Z,39.16
2018-07-21T09:59:01.042Z,39.08
2018-07-21T10:00:53.986Z,38.20
2018-07-21T10:01:53.882Z,38.10
2018-07-21T10:03:46.823Z,38.40
2018-07-21T10:04:46.741Z,38.38
2018-07-21T10:06:39.696Z,39.04
2018-07-21T10:07:39.588Z,38.75
2018-07-21T10:09:32.522Z,39.04
2018-07-21T10:10:32.435Z,38.85
2018-07-21T10:12:25.383Z,39.34
2018-07-21T10:13:25.284Z,38.77
2018-07-21T10:15:18.242Z,38.49
2018-07-21T10:16:18.137Z,37.81
2018-07-21T10:18:11.110Z,37.63
2018-07-21T10:19:11.031Z,37.73
2018-07-21T10:21:04.073Z,37.45
2018-07-21T10:22:03.998Z,37.35
2018-07-21T10:23:56.896Z,37.15
2018-07-21T10:24:56.839Z,37.81
2018-07-21T10:26:50.182Z,38.40
2018-07-21T10:27:49.658Z,38.57
2018-07-21T10:29:42.600Z,37.89
2018-07-21T10:30:42.506Z,37.97
2018-07-21T10:32:35.888Z,39.04
2018-07-21T10:33:35.853Z,39.53
2018-07-21T10:35:28.839Z,38.95
2018-07-21T10:36:28.674Z,39.31
2018-07-21T10:38:22.556Z,39.31
2018-07-21T10:39:22.034Z,39.12
2018-07-21T10:41:15.380Z,39.70
2018-07-21T10:42:14.874Z,38.93
2018-07-21T10:44:07.783Z,38.64
2018-07-21T10:45:07.696Z,38.64
2018-07-21T10:47:00.643Z,38.73
2018-07-21T10:48:00.557Z,38.44
2018-07-21T10:49:53.897Z,39.24
2018-07-21T10:50:53.865Z,39.06
2018-07-21T10:52:46.870Z,38.98
2018-07-21T10:53:46.753Z,38.10
2018-07-21T10:55:39.741Z,37.45
2018-07-21T10:56:39.618Z,36.57
2018-07-21T10:58:32.544Z,36.98
2018-07-21T10:59:32.475Z,36.78
2018-07-21T11:01:26.036Z,35.92
2018-07-21T11:02:25.828Z,36.11
2018-07-21T11:04:18.760Z,35.41
2018-07-21T11:05:18.674Z,35.80
2018-07-21T11:07:11.557Z,36.49
2018-07-21T11:08:11.474Z,36.58
2018-07-21T11:10:04.378Z,36.02
2018-07-21T11:11:04.276Z,36.21
2018-07-21T11:12:57.123Z,34.94
2018-07-21T11:13:57.045Z,35.35
2018-07-21T11:15:49.880Z,35.35
2018-07-21T11:16:49.787Z,35.16
2018-07-21T11:18:42.613Z,35.25
2018-07-21T11:19:42.640Z,35.25
2018-07-21T11:21:35.402Z,34.77
2018-07-21T11:22:35.799Z,34.65
2018-07-21T11:24:28.136Z,35.33
2018-07-21T11:25:28.070Z,34.96
2018-07-21T11:27:20.896Z,34.96
2018-07-21T11:28:21.365Z,34.77
2018-07-21T11:30:13.719Z,34.38
2018-07-21T11:31:13.632Z,34.77
2018-07-21T11:33:07.195Z,34.86
2018-07-21T11:34:06.278Z,34.58
2018-07-21T11:35:59.493Z,34.68
2018-07-21T11:36:59.035Z,33.80
2018-07-21T11:38:51.948Z,34.39
2018-07-21T11:39:52.107Z,33.80
2018-07-21T11:41:46.446Z,33.90
2018-07-21T11:42:46.226Z,33.90
2018-07-21T11:44:39.028Z,34.60
2018-07-21T11:45:38.707Z,34.50
2018-07-21T11:47:31.585Z,33.62
2018-07-21T11:48:31.458Z,33.62
2018-07-21T11:50:24.954Z,33.94
2018-07-21T11:51:24.218Z,34.03
2018-07-21T11:53:17.056Z,33.05
2018-07-21T11:54:16.971Z,33.05
2018-07-21T11:56:09.843Z,33.64
2018-07-21T11:57:09.883Z,33.15
2018-07-21T11:59:04.612Z,33.64
2018-07-21T12:00:04.568Z,33.45
2018-07-21T12:01:57.106Z,32.78
2018-07-21T12:02:56.956Z,33.15
2018-07-21T12:04:50.182Z,32.58
2018-07-21T12:05:50.131Z,32.78
2018-07-21T12:07:42.679Z,32.60
2018-07-21T12:08:42.627Z,32.87
2018-07-21T12:10:36.787Z,32.48
2018-07-21T12:11:36.756Z,32.68
2018-07-21T12:13:30.430Z,32.48
2018-07-21T12:14:30.172Z,32.48
2018-07-21T12:16:22.843Z,32.76
2018-07-21T12:17:22.744Z,33.15
2018-07-21T12:19:16.116Z,33.62
2018-07-21T12:20:15.556Z,33.43
2018-07-21T12:22:08.332Z,33.04
2018-07-21T12:23:08.617Z,33.64
2018-07-21T12:25:01.095Z,33.05
2018-07-21T12:26:01.000Z,32.76
2018-07-21T12:27:53.846Z,33.17
2018-07-21T12:28:53.741Z,32.48
2018-07-21T12:30:46.598Z,32.19
2018-07-21T12:31:46.487Z,32.48
2018-07-21T12:33:39.359Z,32.87
2018-07-21T12:34:39.476Z,32.70
2018-07-21T12:36:32.116Z,31.80
2018-07-21T12:37:32.031Z,32.55
2018-07-21T12:39:25.666Z,33.89
2018-07-21T12:40:25.937Z,34.57
2018-07-21T12:42:18.441Z,34.67
2018-07-21T12:43:18.306Z,34.67
2018-07-21T12:45:11.158Z,34.57
2018-07-21T12:46:11.055Z,34.48
2018-07-21T12:48:03.882Z,33.79
2018-07-21T12:49:03.812Z,34.08
2018-07-21T12:50:57.191Z,34.57
2018-07-21T12:51:56.558Z,34.67
2018-07-21T12:53:50.033Z,34.09
2018-07-21T12:54:49.926Z,34.80
2018-07-21T12:56:42.772Z,33.82
2018-07-21T12:57:42.665Z,33.72
2018-07-21T12:59:35.640Z,33.72
2018-07-21T13:00:35.425Z,33.92
2018-07-21T13:02:28.794Z,33.31
2018-07-21T13:03:28.275Z,33.90
2018-07-21T13:05:21.178Z,34.00
2018-07-21T13:06:21.030Z,34.00
2018-07-21T13:08:14.131Z,34.00
2018-07-21T13:09:14.138Z,33.80
2018-07-21T13:14:02.609Z,34.38
2018-07-21T13:15:02.038Z,34.38
2018-07-21T13:16:55.330Z,33.69
2018-07-21T13:17:54.780Z,34.47
2018-07-21T13:19:48.164Z,35.16
2018-07-21T13:20:47.731Z,34.77
2018-07-21T13:22:40.573Z,34.96
2018-07-21T13:23:40.519Z,35.16
2018-07-21T13:25:33.328Z,35.16
2018-07-21T13:26:33.338Z,35.06
2018-07-21T13:28:26.651Z,34.67
2018-07-21T13:29:26.433Z,34.67
2018-07-21T13:31:18.927Z,34.96
2018-07-21T13:32:18.849Z,34.77
2018-07-21T13:34:11.869Z,35.64
2018-07-21T13:35:13.030Z,35.16
2018-07-21T13:37:04.711Z,34.96
2018-07-21T13:38:04.805Z,35.45
2018-07-21T13:39:59.649Z,34.86
2018-07-21T13:41:00.638Z,35.33
2018-07-21T13:42:51.226Z,35.98
2018-07-21T13:43:50.920Z,36.18
2018-07-21T13:45:42.889Z,36.29
2018-07-21T13:46:43.769Z,36.39
2018-07-21T13:48:36.870Z,36.51
2018-07-21T13:49:35.537Z,35.82
2018-07-21T13:51:28.543Z,36.23
2018-07-21T13:52:28.282Z,34.96
2018-07-21T13:54:21.140Z,35.66
2018-07-21T13:55:21.054Z,34.57
2018-07-21T13:57:14.939Z,35.14
2018-07-21T13:58:13.901Z,35.61
2018-07-21T14:00:07.043Z,35.61
2018-07-21T14:01:06.853Z,36.19
2018-07-21T14:02:59.850Z,36.37
2018-07-21T14:03:59.919Z,36.18
2018-07-21T14:05:52.344Z,36.86
2018-07-21T14:06:52.261Z,36.18
2018-07-21T14:08:54.624Z,36.58
2018-07-21T14:09:52.780Z,36.29
2018-07-21T14:11:47.334Z,36.39
2018-07-21T14:12:45.849Z,36.19
2018-07-21T14:14:38.673Z,36.51
2018-07-21T14:15:38.614Z,36.51
2018-07-21T14:17:32.174Z,36.58
2018-07-21T14:18:31.542Z,37.07
2018-07-21T14:20:24.182Z,36.41
2018-07-21T14:21:24.071Z,36.19
2018-07-21T14:23:16.920Z,36.68
2018-07-21T14:24:16.820Z,36.68
2018-07-21T14:26:09.651Z,36.88
2018-07-21T14:27:09.575Z,36.88
2018-07-21T14:29:02.418Z,37.07
2018-07-21T14:30:02.399Z,36.88
2018-07-21T14:31:55.150Z,36.78
2018-07-21T14:32:55.068Z,36.88
2018-07-21T14:34:47.928Z,37.77
2018-07-21T14:35:47.866Z,37.48
2018-07-21T14:37:40.660Z,37.17
2018-07-21T14:38:40.576Z,37.46
2018-07-21T14:40:33.425Z,37.17
2018-07-21T14:41:33.335Z,37.46
2018-07-21T14:43:26.202Z,38.02
2018-07-21T14:44:26.160Z,38.12
2018-07-21T14:46:18.931Z,38.20
2018-07-21T14:47:19.064Z,38.49
2018-07-21T14:49:11.669Z,38.30
2018-07-21T14:50:11.570Z,38.10
2018-07-21T14:52:04.399Z,38.79
2018-07-21T14:53:04.320Z,38.59
2018-07-21T14:54:57.343Z,38.98
2018-07-21T14:55:57.070Z,38.79
2018-07-21T14:57:49.936Z,39.18
2018-07-21T14:58:49.822Z,39.08
2018-07-21T15:00:42.670Z,39.18
2018-07-21T15:01:42.659Z,39.57
2018-07-21T15:03:35.413Z,39.86
2018-07-21T15:04:35.337Z,39.86
2018-07-21T15:06:28.155Z,40.45
2018-07-21T15:07:28.176Z,40.45
2018-07-21T15:09:20.928Z,40.25
2018-07-21T15:10:20.833Z,40.93
2018-07-21T15:12:14.687Z,40.16
2018-07-21T15:13:14.593Z,40.45
2018-07-21T15:15:07.450Z,39.96
2018-07-21T15:16:07.334Z,40.35
2018-07-21T15:18:00.195Z,40.93
2018-07-21T15:19:00.094Z,40.83
2018-07-21T15:20:52.933Z,41.61
2018-07-21T15:21:52.832Z,40.55
2018-07-21T15:23:45.679Z,41.32
2018-07-21T15:24:45.585Z,41.32
2018-07-21T15:26:38.413Z,42.18
2018-07-21T15:27:38.375Z,42.55
2018-07-21T15:29:31.242Z,42.38
2018-07-21T15:30:31.085Z,42.38
2018-07-21T15:32:23.914Z,42.18
2018-07-21T15:33:23.857Z,41.99
2018-07-21T15:35:16.732Z,41.60
2018-07-21T15:36:16.628Z,42.08
2018-07-21T15:38:12.619Z,41.60
2018-07-21T15:39:12.354Z,41.60
2018-07-21T15:41:06.186Z,42.08
2018-07-21T15:42:06.112Z,42.66
2018-07-21T15:43:58.925Z,42.28
2018-07-21T15:44:58.828Z,42.96
2018-07-21T15:46:51.660Z,42.28
2018-07-21T15:47:51.604Z,42.66
2018-07-21T15:49:44.441Z,42.86
2018-07-21T15:50:44.343Z,43.33
2018-07-21T15:52:37.188Z,42.94
2018-07-21T15:53:37.086Z,43.33
2018-07-21T15:55:29.947Z,43.43
2018-07-21T15:56:29.825Z,44.10
2018-07-21T15:58:22.656Z,43.52
2018-07-21T15:59:22.577Z,44.01
2018-07-21T16:01:15.421Z,44.30
2018-07-21T16:02:15.357Z,44.10
2018-07-21T16:04:08.190Z,44.48
2018-07-21T16:05:08.069Z,44.96
2018-07-21T16:07:00.911Z,44.96
2018-07-21T16:08:00.826Z,45.06
2018-07-21T16:09:53.673Z,44.96
2018-07-21T16:10:53.576Z,45.15
2018-07-21T16:12:46.401Z,45.72
2018-07-21T16:13:46.342Z,45.81
2018-07-21T16:15:39.179Z,45.72
2018-07-21T16:16:39.088Z,45.91
2018-07-21T16:18:31.924Z,46.20
2018-07-21T16:19:31.818Z,46.20
2018-07-21T16:21:24.676Z,46.30
2018-07-21T16:22:24.611Z,45.91
2018-07-21T16:24:17.462Z,46.88
2018-07-21T16:25:17.317Z,46.20
2018-07-21T16:27:10.183Z,45.62
2018-07-21T16:28:10.076Z,45.62
2018-07-21T16:30:02.928Z,46.11
2018-07-21T16:31:02.824Z,46.78
2018-07-21T16:32:55.645Z,46.01
2018-07-21T16:33:55.578Z,45.62
2018-07-21T16:35:49.453Z,46.98
2018-07-21T16:36:48.374Z,46.13
2018-07-21T16:38:41.296Z,45.84
2018-07-21T16:39:41.171Z,45.47
2018-07-21T16:41:34.225Z,44.62
2018-07-21T16:42:34.132Z,44.71
2018-07-21T16:44:26.987Z,44.05
2018-07-21T16:45:26.897Z,44.54
2018-07-21T16:47:19.731Z,45.00
2018-07-21T16:48:19.634Z,44.13
2018-07-21T16:50:12.470Z,44.69
2018-07-21T16:51:12.375Z,44.69
2018-07-21T16:53:05.222Z,45.06
2018-07-21T16:54:05.148Z,45.74
2018-07-21T16:55:57.967Z,46.03
2018-07-21T16:56:57.888Z,45.84
2018-07-21T16:58:50.730Z,45.64
2018-07-21T16:59:50.636Z,46.13
2018-07-21T17:01:43.473Z,45.54
2018-07-21T17:02:43.372Z,45.74
2018-07-21T17:04:36.744Z,46.13
2018-07-21T17:05:36.637Z,45.84
2018-07-21T17:07:29.993Z,45.94
2018-07-21T17:08:29.903Z,45.84
2018-07-21T17:10:22.747Z,45.64
2018-07-21T17:11:22.644Z,45.64
2018-07-21T17:13:15.495Z,45.64
2018-07-21T17:14:15.391Z,45.37
2018-07-21T17:16:08.256Z,45.00
2018-07-21T17:17:08.171Z,44.13
2018-07-21T17:19:00.997Z,43.19
2018-07-21T17:20:00.891Z,42.24
2018-07-21T17:21:53.725Z,41.21
2018-07-21T17:22:53.637Z,40.35
2018-07-21T17:24:46.487Z,40.00
2018-07-21T17:25:46.390Z,39.43
2018-07-21T17:27:39.368Z,38.76
2018-07-21T17:28:39.165Z,38.55
2018-07-21T17:30:32.014Z,39.31
2018-07-21T17:31:31.895Z,39.80
2018-07-21T17:33:25.253Z,39.69
2018-07-21T17:34:25.156Z,40.64
2018-07-21T17:36:18.026Z,41.41
2018-07-21T17:37:17.953Z,41.48
2018-07-21T17:39:10.791Z,42.34
2018-07-21T17:40:10.706Z,42.34
2018-07-21T17:42:03.520Z,42.34
2018-07-21T17:43:03.427Z,42.24
2018-07-21T17:44:56.259Z,42.71
2018-07-21T17:45:56.183Z,42.71
2018-07-21T17:47:48.981Z,42.41
2018-07-21T17:48:48.902Z,43.32
2018-07-21T17:50:41.748Z,42.54
2018-07-21T17:51:41.672Z,42.54
2018-07-21T17:53:34.500Z,42.14
2018-07-21T17:54:34.396Z,42.36
2018-07-21T17:56:27.283Z,41.58
2018-07-21T17:57:27.153Z,41.50
2018-07-21T17:59:19.996Z,40.92
2018-07-21T18:00:19.895Z,41.42
2018-07-21T18:02:12.728Z,40.08
2018-07-21T18:03:12.661Z,39.69
2018-07-21T18:05:05.500Z,39.02
2018-07-21T18:06:05.395Z,38.92
2018-07-21T18:07:58.244Z,39.00
2018-07-21T18:08:58.168Z,38.98
2018-07-21T18:10:50.995Z,40.21
2018-07-21T18:11:50.903Z,40.97
2018-07-21T18:13:43.730Z,41.36
2018-07-21T18:14:43.646Z,41.44
2018-07-21T18:16:36.518Z,42.10
2018-07-21T18:17:36.408Z,42.10
2018-07-21T18:19:29.270Z,42.96
2018-07-21T18:20:29.198Z,43.25
2018-07-21T18:22:22.107Z,42.96
2018-07-21T18:23:22.055Z,43.64
2018-07-21T18:25:14.978Z,43.91
2018-07-21T18:26:14.779Z,44.20
2018-07-21T18:28:07.612Z,44.67
2018-07-21T18:29:07.496Z,45.06
2018-07-21T18:31:00.345Z,45.08
2018-07-21T18:32:00.248Z,45.64
2018-07-21T18:33:53.078Z,45.45
2018-07-21T18:34:53.011Z,45.64